Time;durP1;ratioP1;P1;durP2;ratioP2;P2;SDS_P1;SDS_P2;PMS_P1;PMS_P2;Temp;Humidity;BMP_temperature;BMP_pressure;BME280_temperature;BME280_humidity;BME280_pressure;Samples;Min_cycle;Max_cycle;Signal;HPM_P1;HPM_P2
2023/04/01 00:00:20;;;;;;;32.63;12.07;;;9.60;99.90;;;;;;4986935;28;20131;-53
2023/04/01 00:02:47;;;;;;;23.73;11.27;;;9.20;99.90;;;;;;4986405;28;20049;-50
2023/04/01 00:05:13;;;;;;;31.15;11.70;;;9.90;99.90;;;;;;4986860;28;20079;-50
2023/04/01 00:07:40;;;;;;;17.45;9.45;;;9.50;99.90;;;;;;4987452;28;20046;-51
2023/04/01 00:10:10;;;;;;;22.73;10.15;;;9.10;99.90;;;;;;4986907;28;20046;-50
2023/04/01 00:12:37;;;;;;;16.38;8.88;;;9.90;99.90;;;;;;4986796;28;20049;-52
2023/04/01 00:15:04;;;;;;;15.93;9.27;;;9.80;99.90;;;;;;4986724;28;20692;-49
2023/04/01 00:17:30;;;;;;;19.55;8.95;;;9.30;99.90;;;;;;4986245;28;20049;-51
2023/04/01 00:19:56;;;;;;;15.98;8.85;;;9.60;99.90;;;;;;4985576;28;20562;-53
2023/04/01 00:22:23;;;;;;;17.10;8.68;;;9.60;99.90;;;;;;4987046;28;20053;-50
2023/04/01 00:24:48;;;;;;;15.25;8.85;;;9.70;99.90;;;;;;4986888;28;20092;-53
2023/04/01 00:27:15;;;;;;;20.58;9.50;;;9.50;99.90;;;;;;4986667;28;20082;-51
2023/04/01 00:29:45;;;;;;;15.00;8.50;;;9.70;99.90;;;;;;4986349;28;20204;-50
2023/04/01 00:32:11;;;;;;;15.85;9.02;;;9.70;99.90;;;;;;4987246;28;20441;-52
2023/04/01 00:34:37;;;;;;;21.65;10.38;;;9.20;99.90;;;;;;4987145;28;20466;-52
2023/04/01 00:37:03;;;;;;;21.75;9.85;;;9.60;99.90;;;;;;4987258;28;20049;-50
2023/04/01 00:39:30;;;;;;;17.17;9.52;;;9.60;99.90;;;;;;4986882;28;20050;-52
2023/04/01 00:41:56;;;;;;;17.70;9.70;;;9.70;99.90;;;;;;4986418;28;20658;-50
2023/04/01 00:44:25;;;;;;;19.75;10.30;;;9.60;99.90;;;;;;4986462;28;20052;-51
2023/04/01 00:46:52;;;;;;;17.70;9.23;;;9.70;99.90;;;;;;4986301;28;20416;-50
2023/04/01 00:49:22;;;;;;;20.40;10.80;;;9.20;99.90;;;;;;4985859;28;20094;-50
2023/04/01 00:51:51;;;;;;;20.00;10.05;;;9.60;99.90;;;;;;4986465;28;20054;-50
2023/04/01 00:54:20;;;;;;;16.88;9.50;;;9.60;99.90;;;;;;4986505;28;20057;-51
2023/04/01 00:57:00;;;;;;;17.98;9.35;;;9.50;99.90;;;;;;4986674;28;20074;-51
2023/04/01 00:59:47;;;;;;;22.15;9.55;;;9.10;99.90;;;;;;4986517;28;20472;-49
2023/04/01 01:02:14;;;;;;;17.65;8.52;;;9.10;99.90;;;;;;4985868;28;20775;-50
2023/04/01 01:04:40;;;;;;;18.98;8.57;;;9.50;99.90;;;;;;4986355;28;20105;-52
2023/04/01 01:07:30;;;;;;;24.77;9.90;;;9.80;99.90;;;;;;4986481;28;20046;-50
2023/04/01 01:10:05;;;;;;;17.48;9.23;;;9.10;99.90;;;;;;4986135;28;20564;-51
2023/04/01 01:12:44;;;;;;;22.23;10.52;;;9.20;99.90;;;;;;4986883;28;20050;-53
2023/04/01 01:15:22;;;;;;;19.17;9.20;;;9.60;99.90;;;;;;4986120;28;20096;-53
2023/04/01 01:17:56;;;;;;;18.60;9.52;;;9.20;99.90;;;;;;4985881;28;20169;-50
2023/04/01 01:20:25;;;;;;;27.23;10.50;;;9.10;99.90;;;;;;4986081;28;20130;-50
2023/04/01 01:23:11;;;;;;;18.25;8.95;;;9.20;99.90;;;;;;4986160;28;20046;-52
2023/04/01 01:26:03;;;;;;;21.90;10.10;;;9.20;99.90;;;;;;4986017;28;20054;-50
2023/04/01 01:29:10;;;;;;;24.27;10.32;;;9.20;99.90;;;;;;4986020;28;20105;-50
2023/04/01 01:31:41;;;;;;;18.50;9.90;;;9.10;99.90;;;;;;4988607;28;20527;-49
2023/04/01 01:34:44;;;;;;;22.02;9.93;;;9.20;99.90;;;;;;4989768;28;20118;-50
2023/04/01 01:37:14;;;;;;;24.95;10.35;;;9.20;99.90;;;;;;4990011;28;20464;-53
2023/04/01 01:39:42;;;;;;;21.58;10.07;;;9.50;99.90;;;;;;4990587;28;20058;-52
2023/04/01 01:42:11;;;;;;;17.90;9.70;;;9.10;99.90;;;;;;4990552;28;20046;-53
2023/04/01 01:44:39;;;;;;;23.90;10.18;;;9.50;99.90;;;;;;4990455;28;20074;-52
2023/04/01 01:47:05;;;;;;;22.20;10.27;;;9.50;99.90;;;;;;4990237;28;20091;-50
2023/04/01 01:49:33;;;;;;;22.60;10.40;;;9.80;99.90;;;;;;4990765;28;20062;-50
2023/04/01 01:51:59;;;;;;;22.35;10.45;;;9.50;99.90;;;;;;4990368;28;20189;-53
2023/04/01 01:54:25;;;;;;;25.30;10.45;;;9.00;99.90;;;;;;4990481;28;20093;-52
2023/04/01 01:56:59;;;;;;;18.90;9.55;;;9.10;99.90;;;;;;4989855;28;20086;-53
2023/04/01 01:59:27;;;;;;;17.38;9.20;;;9.50;99.90;;;;;;4990112;28;20078;-53
2023/04/01 02:01:56;;;;;;;16.25;8.80;;;9.70;99.90;;;;;;4988559;28;20400;-49
2023/04/01 02:04:23;;;;;;;21.25;9.75;;;9.50;99.90;;;;;;4989782;28;20182;-53
2023/04/01 02:07:13;;;;;;;17.05;8.13;;;9.60;99.90;;;;;;4989950;28;20054;-50
2023/04/01 02:09:39;;;;;;;19.10;9.18;;;9.70;99.90;;;;;;4989378;28;20046;-52
2023/04/01 02:12:12;;;;;;;20.00;7.93;;;9.40;99.90;;;;;;4989210;28;20097;-50
2023/04/01 02:14:51;;;;;;;52.53;11.73;;;9.10;99.90;;;;;;4989566;28;20134;-51
2023/04/01 02:17:19;;;;;;;19.65;9.20;;;9.40;99.90;;;;;;4989445;28;20077;-53
2023/04/01 02:19:57;;;;;;;20.42;8.48;;;9.50;99.90;;;;;;4989930;28;20046;-50
2023/04/01 02:22:41;;;;;;;20.98;9.00;;;9.10;99.90;;;;;;4989761;28;20046;-49
2023/04/01 02:25:17;;;;;;;24.67;9.82;;;9.10;99.90;;;;;;4989179;28;20047;-50
2023/04/01 02:27:44;;;;;;;22.70;10.35;;;9.50;99.90;;;;;;4989394;28;20057;-50
2023/04/01 02:30:11;;;;;;;22.25;9.32;;;9.10;99.90;;;;;;4989274;28;20579;-49
2023/04/01 02:32:39;;;;;;;24.33;9.85;;;9.00;99.90;;;;;;4989504;28;20550;-53
2023/04/01 02:35:10;;;;;;;23.77;9.70;;;9.40;99.90;;;;;;4989341;28;20102;-52
2023/04/01 02:37:36;;;;;;;23.48;9.32;;;9.10;99.90;;;;;;4989839;28;20841;-50
2023/04/01 02:40:06;;;;;;;30.45;10.88;;;9.50;99.90;;;;;;4989870;28;20042;-49
2023/04/01 02:42:32;;;;;;;36.70;11.10;;;9.00;99.90;;;;;;4988381;28;20097;-52
2023/04/01 02:44:58;;;;;;;29.48;10.60;;;9.60;99.90;;;;;;4989870;28;20065;-50
2023/04/01 02:47:23;;;;;;;32.65;10.57;;;9.00;99.90;;;;;;4989352;28;20038;-49
2023/04/01 02:49:49;;;;;;;26.02;9.65;;;9.40;99.90;;;;;;4990013;28;20109;-49
2023/04/01 02:52:15;;;;;;;44.38;12.10;;;9.20;99.90;;;;;;4989372;28;20444;-49
2023/04/01 02:54:40;;;;;;;38.13;11.45;;;9.20;99.90;;;;;;4989268;28;20101;-51
2023/04/01 02:57:06;;;;;;;51.58;13.18;;;9.20;99.90;;;;;;4989178;28;20097;-49
2023/04/01 02:59:32;;;;;;;42.80;12.20;;;9.20;99.90;;;;;;4989216;28;20054;-50
2023/04/01 03:01:58;;;;;;;38.58;11.98;;;8.90;99.90;;;;;;4989617;28;20072;-50
2023/04/01 03:04:24;;;;;;;42.88;13.25;;;9.20;99.90;;;;;;4989030;28;20412;-50
2023/04/01 03:06:49;;;;;;;37.20;11.63;;;9.00;99.90;;;;;;4989353;28;20046;-50
2023/04/01 03:09:15;;;;;;;40.97;12.00;;;9.00;99.90;;;;;;4988497;28;20129;-51
2023/04/01 03:11:41;;;;;;;34.83;10.63;;;9.10;99.90;;;;;;4988439;28;20042;-52
2023/04/01 03:14:07;;;;;;;33.30;11.52;;;9.40;99.90;;;;;;4988790;28;20138;-50
2023/04/01 03:16:32;;;;;;;41.10;11.73;;;9.20;99.90;;;;;;4988168;28;20539;-50
2023/04/01 03:18:59;;;;;;;29.50;11.77;;;9.20;99.90;;;;;;4987883;28;20174;-49
2023/04/01 03:21:25;;;;;;;28.63;11.27;;;9.50;99.90;;;;;;4987836;28;20523;-50
2023/04/01 03:23:51;;;;;;;74.00;12.75;;;9.40;99.90;;;;;;4988097;28;20082;-49
2023/04/01 03:26:17;;;;;;;38.85;11.90;;;9.50;99.90;;;;;;4987668;28;20089;-51
2023/04/01 03:28:43;;;;;;;41.47;11.43;;;9.20;99.90;;;;;;4987951;28;20097;-49
2023/04/01 03:31:10;;;;;;;32.33;11.90;;;9.40;99.90;;;;;;4987797;28;20042;-49
2023/04/01 03:33:36;;;;;;;44.40;12.77;;;9.50;99.90;;;;;;4987463;28;20053;-50
2023/04/01 03:36:03;;;;;;;38.30;12.30;;;9.00;99.90;;;;;;4987918;28;20052;-48
2023/04/01 03:38:28;;;;;;;38.80;12.20;;;8.90;99.90;;;;;;4987608;28;20054;-49
2023/04/01 03:40:54;;;;;;;37.17;13.27;;;9.50;99.90;;;;;;4987663;28;20093;-52
2023/04/01 03:43:20;;;;;;;47.78;13.02;;;9.60;99.90;;;;;;4987477;28;20050;-51
2023/04/01 03:45:51;;;;;;;33.30;11.27;;;9.60;99.90;;;;;;4987107;28;20477;-50
2023/04/01 03:48:16;;;;;;;41.70;13.60;;;9.50;99.90;;;;;;4986861;28;20185;-50
2023/04/01 03:50:42;;;;;;;40.75;13.52;;;9.30;99.90;;;;;;4987447;28;20054;-50
2023/04/01 03:53:09;;;;;;;39.80;13.70;;;9.70;99.90;;;;;;4987747;28;20038;-49
2023/04/01 03:55:38;;;;;;;43.83;14.00;;;9.30;99.90;;;;;;4987633;28;20042;-52
2023/04/01 03:58:05;;;;;;;38.25;13.13;;;8.90;99.90;;;;;;4987166;28;20077;-50
2023/04/01 04:00:31;;;;;;;38.78;13.68;;;9.40;99.90;;;;;;4987562;28;20050;-52
2023/04/01 04:02:57;;;;;;;38.88;13.07;;;9.00;99.90;;;;;;4987426;28;20049;-52
2023/04/01 04:05:24;;;;;;;38.05;14.88;;;9.50;99.90;;;;;;4987099;28;20117;-50
2023/04/01 04:07:50;;;;;;;42.47;14.07;;;9.40;99.90;;;;;;4987382;28;20371;-50
2023/04/01 04:10:16;;;;;;;43.72;13.43;;;9.30;99.90;;;;;;4987384;28;20110;-50
2023/04/01 04:12:41;;;;;;;45.17;14.20;;;8.90;99.90;;;;;;4987340;28;20611;-50
2023/04/01 04:15:08;;;;;;;36.50;13.27;;;9.40;99.90;;;;;;4987848;28;20046;-51
2023/04/01 04:17:33;;;;;;;40.42;14.43;;;9.20;99.90;;;;;;4987573;28;20121;-52
2023/04/01 04:19:59;;;;;;;45.30;15.05;;;9.40;99.90;;;;;;4987786;28;20137;-52
2023/04/01 04:22:25;;;;;;;47.83;15.60;;;9.20;99.90;;;;;;4987571;28;20038;-51
2023/04/01 04:24:51;;;;;;;46.38;16.65;;;9.20;99.90;;;;;;4987439;28;20049;-51
2023/04/01 04:27:17;;;;;;;45.95;14.88;;;9.30;99.90;;;;;;4987532;28;20362;-53
2023/04/01 04:29:43;;;;;;;59.65;17.33;;;8.90;99.90;;;;;;4987340;28;20061;-52
2023/04/01 04:32:08;;;;;;;50.35;15.63;;;9.50;99.90;;;;;;4987544;28;20233;-50
2023/04/01 04:34:34;;;;;;;44.63;15.88;;;8.90;99.90;;;;;;4987022;28;20516;-52
2023/04/01 04:37:00;;;;;;;56.22;16.92;;;8.90;99.90;;;;;;4986596;28;20050;-52
2023/04/01 04:39:25;;;;;;;58.33;17.30;;;10.00;99.90;;;;;;4987466;28;20091;-51
2023/04/01 04:41:51;;;;;;;50.22;17.15;;;8.90;99.90;;;;;;4987084;28;20197;-52
2023/04/01 04:44:17;;;;;;;57.33;17.38;;;9.30;99.90;;;;;;4987405;28;20048;-51
2023/04/01 04:46:42;;;;;;;73.75;18.58;;;10.10;99.90;;;;;;4986926;28;20129;-52
2023/04/01 04:49:09;;;;;;;54.45;16.23;;;9.30;99.90;;;;;;4986516;28;20146;-50
2023/04/01 04:51:35;;;;;;;52.40;17.58;;;9.30;99.90;;;;;;4986618;28;20121;-50
2023/04/01 04:54:02;;;;;;;55.30;16.77;;;9.50;99.90;;;;;;4987197;28;20439;-51
2023/04/01 04:56:28;;;;;;;50.40;14.88;;;8.90;99.90;;;;;;4986890;28;20125;-52
2023/04/01 04:58:54;;;;;;;43.30;14.27;;;9.50;99.90;;;;;;4986778;28;20153;-53
2023/04/01 05:01:20;;;;;;;37.55;12.82;;;9.20;99.90;;;;;;4986521;28;20142;-53
2023/04/01 05:03:46;;;;;;;30.60;10.95;;;9.10;99.90;;;;;;4986157;28;20050;-52
2023/04/01 05:06:13;;;;;;;22.35;9.05;;;9.40;99.90;;;;;;4989871;28;20044;-52
2023/04/01 05:08:40;;;;;;;21.92;8.60;;;9.40;99.90;;;;;;4989739;28;20046;-52
2023/04/01 05:11:16;;;;;;;21.30;8.60;;;8.90;99.90;;;;;;4990828;28;20046;-50
2023/04/01 05:13:42;;;;;;;25.23;8.95;;;8.90;99.90;;;;;;4990789;28;20065;-52
2023/04/01 05:16:17;;;;;;;22.85;8.93;;;9.40;99.90;;;;;;4990736;28;20051;-50
2023/04/01 05:18:43;;;;;;;57.67;12.57;;;8.80;99.90;;;;;;4990731;28;20046;-53
2023/04/01 05:21:11;;;;;;;36.33;11.27;;;8.80;99.90;;;;;;4990573;28;20115;-51
2023/04/01 05:23:37;;;;;;;42.13;12.05;;;9.10;99.90;;;;;;4990080;28;20050;-50
2023/04/01 05:26:07;;;;;;;34.30;12.07;;;9.10;99.90;;;;;;4990444;28;20039;-52
2023/04/01 05:28:33;;;;;;;40.42;11.63;;;8.80;99.90;;;;;;4990341;28;20050;-51
2023/04/01 05:31:02;;;;;;;30.35;11.15;;;7.70;99.90;;;;;;4990391;28;20046;-49
2023/04/01 05:33:29;;;;;;;28.55;10.52;;;9.10;99.90;;;;;;4990800;28;20038;-53
2023/04/01 05:35:55;;;;;;;28.80;11.13;;;9.40;99.90;;;;;;4990934;28;20041;-50
2023/04/01 05:38:21;;;;;;;49.40;14.80;;;9.20;99.90;;;;;;4990239;28;20050;-53
2023/04/01 05:40:46;;;;;;;57.00;14.55;;;9.30;99.90;;;;;;5005236;28;20118;-52
2023/04/01 05:43:12;;;;;;;53.50;16.45;;;9.80;99.90;;;;;;4990171;28;20046;-52
2023/04/01 05:45:38;;;;;;;71.85;17.65;;;9.00;99.90;;;;;;4988614;28;20452;-52
2023/04/01 05:48:04;;;;;;;47.90;15.40;;;9.10;99.90;;;;;;4989428;28;20085;-50
2023/04/01 05:50:30;;;;;;;36.10;13.70;;;8.80;99.90;;;;;;4989902;28;20077;-50
2023/04/01 05:52:56;;;;;;;56.80;15.50;;;9.10;99.90;;;;;;4989869;28;20057;-51
2023/04/01 05:55:22;;;;;;;56.80;17.02;;;9.40;99.90;;;;;;4989841;28;20401;-50
2023/04/01 05:57:49;;;;;;;51.60;17.63;;;9.10;99.90;;;;;;4989600;28;20105;-53
2023/04/01 06:00:16;;;;;;;54.80;17.60;;;9.10;99.90;;;;;;4990065;28;20433;-51
2023/04/01 06:02:42;;;;;;;153.57;24.02;;;8.80;99.90;;;;;;4989513;28;20089;-50
2023/04/01 06:05:30;;;;;;;113.30;23.35;;;9.30;99.90;;;;;;4990198;28;20055;-50
2023/04/01 06:08:00;;;;;;;73.93;22.05;;;8.90;99.90;;;;;;4989045;28;20042;-50
2023/04/01 06:11:01;;;;;;;121.70;24.58;;;9.20;99.90;;;;;;4990194;28;20113;-51
2023/04/01 06:13:35;;;;;;;159.95;27.17;;;8.90;99.90;;;;;;4989002;28;20061;-50
2023/04/01 06:16:22;;;;;;;65.80;20.83;;;8.90;99.90;;;;;;4989268;28;20385;-52
2023/04/01 06:19:10;;;;;;;60.20;20.45;;;9.00;99.90;;;;;;4989005;28;20096;-52
2023/04/01 06:22:10;;;;;;;96.10;24.23;;;9.00;99.90;;;;;;4989552;28;20061;-52
2023/04/01 06:25:13;;;;;;;69.88;22.40;;;9.10;99.90;;;;;;4989216;28;20050;-53
2023/04/01 06:28:05;;;;;;;60.58;20.80;;;9.00;99.90;;;;;;4989158;28;20054;-52
2023/04/01 06:30:48;;;;;;;65.88;22.05;;;9.10;99.90;;;;;;4989529;28;20089;-53
2023/04/01 06:33:39;;;;;;;72.38;22.27;;;9.20;99.90;;;;;;4989191;28;20053;-52
2023/04/01 06:36:44;;;;;;;106.20;24.80;;;9.20;99.90;;;;;;4989443;28;20096;-50
2023/04/01 06:39:16;;;;;;;67.47;21.85;;;9.70;99.90;;;;;;4986757;28;20146;-53
2023/04/01 06:41:54;;;;;;;;;;;9.80;99.90;;;;;;4989645;28;20052;-52
2023/04/01 06:44:51;;;;;;;67.45;22.70;;;9.40;99.90;;;;;;4988846;28;19921;-51
2023/04/01 06:47:36;;;;;;;80.72;25.42;;;9.40;99.90;;;;;;4988938;28;20081;-49
2023/04/01 06:50:20;;;;;;;62.15;22.85;;;9.80;99.90;;;;;;5003419;28;20061;-52
2023/04/01 06:53:00;;;;;;;68.57;23.25;;;9.60;99.90;;;;;;4988967;28;20078;-53
2023/04/01 06:55:40;;;;;;;66.60;23.88;;;9.80;99.90;;;;;;4988914;28;20485;-51
2023/04/01 06:58:18;;;;;;;68.82;23.65;;;9.70;99.90;;;;;;4989126;28;20134;-49
2023/04/01 07:00:48;;;;;;;96.25;25.38;;;9.80;99.90;;;;;;4988849;28;20547;-50
2023/04/01 07:03:22;;;;;;;74.05;23.60;;;10.30;99.90;;;;;;4989032;28;20046;-50
2023/04/01 07:05:49;;;;;;;65.97;23.05;;;10.00;99.90;;;;;;4988030;28;20489;-53
2023/04/01 07:08:25;;;;;;;53.45;20.73;;;10.10;99.90;;;;;;4988043;28;20042;-49
2023/04/01 07:11:17;;;;;;;155.60;27.38;;;10.20;99.90;;;;;;4988649;28;20044;-50
2023/04/01 07:14:03;;;;;;;57.20;21.48;;;10.30;99.90;;;;;;4988006;28;20497;-51
2023/04/01 07:16:44;;;;;;;64.28;21.17;;;10.90;99.90;;;;;;4987320;28;20042;-49
2023/04/01 07:19:31;;;;;;;52.80;19.75;;;10.50;99.90;;;;;;4988046;28;20054;-50
2023/04/01 07:22:05;;;;;;;76.10;21.67;;;10.50;99.90;;;;;;4988372;28;20057;-52
2023/04/01 07:24:37;;;;;;;48.83;19.63;;;10.50;99.90;;;;;;4988535;28;20069;-49
2023/04/01 07:27:05;;;;;;;;;;;11.00;99.90;;;;;;4988191;28;20070;-48
2023/04/01 07:29:30;;;;;;;49.50;20.63;;;10.80;99.90;;;;;;4988389;28;19925;-51
2023/04/01 07:32:15;;;;;;;66.35;20.73;;;10.80;99.90;;;;;;4988164;28;20069;-50
2023/04/01 07:34:59;;;;;;;48.92;18.90;;;10.70;99.90;;;;;;4988159;28;20053;-51
2023/04/01 07:37:51;;;;;;;78.10;22.05;;;11.20;99.90;;;;;;4987514;28;20042;-52
2023/04/01 07:40:42;;;;;;;41.72;18.08;;;10.70;99.90;;;;;;4987340;28;20050;-50
2023/04/01 07:43:32;;;;;;;35.50;15.68;;;10.80;99.90;;;;;;4987817;28;20057;-51
2023/04/01 07:46:26;;;;;;;45.28;18.52;;;10.70;99.90;;;;;;4987981;28;20452;-52
2023/04/01 07:49:07;;;;;;;32.03;14.68;;;10.70;99.90;;;;;;4987725;28;20499;-50
2023/04/01 07:52:17;;;;;;;29.93;13.50;;;10.70;99.90;;;;;;4988017;28;20050;-51
2023/04/01 07:54:56;;;;;;;30.83;14.13;;;10.70;99.90;;;;;;4987322;28;20250;-50
2023/04/01 07:57:36;;;;;;;37.88;13.55;;;10.70;99.90;;;;;;4987555;28;20054;-52
2023/04/01 08:00:12;;;;;;;45.83;13.23;;;11.00;99.90;;;;;;4987654;28;20126;-52
2023/04/01 08:02:55;;;;;;;43.38;12.85;;;10.70;99.90;;;;;;4987822;28;20053;-49
2023/04/01 08:05:30;;;;;;;61.72;14.30;;;10.70;99.90;;;;;;4987598;28;20104;-50
2023/04/01 08:08:28;;;;;;;41.78;12.80;;;10.60;99.90;;;;;;4987048;28;20096;-49
2023/04/01 08:11:25;;;;;;;25.02;10.40;;;10.80;99.90;;;;;;4987687;28;20050;-50
2023/04/01 08:14:08;;;;;;;27.05;10.40;;;10.50;99.90;;;;;;4987693;28;20050;-49
2023/04/01 08:16:53;;;;;;;31.33;10.30;;;10.70;99.90;;;;;;4987792;28;20042;-52
2023/04/01 08:19:36;;;;;;;18.08;9.00;;;10.30;99.90;;;;;;4987618;28;20069;-49
2023/04/01 08:22:11;;;;;;;32.50;11.32;;;10.70;99.90;;;;;;4987311;28;20045;-49
2023/04/01 08:24:45;;;;;;;27.50;10.35;;;10.60;99.90;;;;;;4987528;28;20064;-50
2023/04/01 08:27:36;;;;;;;22.30;10.90;;;10.70;99.90;;;;;;4986853;28;20391;-52
2023/04/01 08:30:18;;;;;;;21.73;9.93;;;10.50;99.90;;;;;;4986348;28;20051;-52
2023/04/01 08:32:52;;;;;;;26.83;11.93;;;10.50;99.90;;;;;;4987407;28;20053;-53
2023/04/01 08:35:47;;;;;;;34.63;12.07;;;11.00;99.90;;;;;;4987345;28;20078;-50
2023/04/01 08:38:21;;;;;;;33.35;13.20;;;10.50;99.90;;;;;;4986604;28;20034;-50
2023/04/01 08:41:07;;;;;;;40.63;13.50;;;10.80;99.90;;;;;;4989949;28;20038;-51
2023/04/01 08:44:07;;;;;;;46.60;14.73;;;10.40;99.90;;;;;;4989398;28;20166;-50
2023/04/01 08:46:39;;;;;;;29.35;14.18;;;10.30;99.90;;;;;;4990567;28;20064;-49
2023/04/01 08:49:29;;;;;;;27.58;14.00;;;10.30;99.90;;;;;;4990472;28;20062;-52
2023/04/01 08:52:06;;;;;;;33.38;14.32;;;10.30;99.90;;;;;;4990757;28;20049;-49
2023/04/01 08:55:03;;;;;;;25.77;13.50;;;10.60;99.90;;;;;;4991387;28;20096;-50
2023/04/01 08:57:49;;;;;;;24.83;13.10;;;10.40;99.90;;;;;;4991221;28;20042;-48
2023/04/01 09:00:31;;;;;;;33.22;13.35;;;10.40;99.90;;;;;;4990409;28;20089;-50
2023/04/01 09:03:32;;;;;;;34.78;14.88;;;10.40;99.90;;;;;;4990690;28;20064;-49
2023/04/01 09:06:28;;;;;;;25.77;14.18;;;10.50;99.90;;;;;;4989035;28;20053;-50
2023/04/01 09:09:22;;;;;;;24.92;13.52;;;10.70;99.90;;;;;;4989470;28;20046;-52
2023/04/01 09:12:15;;;;;;;22.17;13.57;;;10.80;99.90;;;;;;4990950;28;20073;-52
2023/04/01 09:15:06;;;;;;;21.60;12.52;;;10.90;99.90;;;;;;4990645;28;20061;-49
2023/04/01 09:17:38;;;;;;;18.90;12.95;;;11.00;99.90;;;;;;4990435;28;20042;-49
2023/04/01 09:20:25;;;;;;;16.95;11.13;;;10.90;99.90;;;;;;4990515;28;20050;-50
2023/04/01 09:22:59;;;;;;;24.15;12.68;;;10.80;99.90;;;;;;4990752;28;20046;-51
2023/04/01 09:25:53;;;;;;;20.65;12.02;;;10.90;99.90;;;;;;4990633;28;20046;-53
2023/04/01 09:28:27;;;;;;;19.30;12.05;;;10.80;99.90;;;;;;4990006;28;20038;-49
2023/04/01 09:31:02;;;;;;;20.77;13.55;;;10.80;99.90;;;;;;4990360;28;20140;-52
2023/04/01 09:34:13;;;;;;;18.95;11.65;;;10.90;99.90;;;;;;4990412;28;20046;-52
2023/04/01 09:36:47;;;;;;;20.02;13.40;;;10.90;99.90;;;;;;4989763;28;20046;-50
2023/04/01 09:39:45;;;;;;;21.80;12.85;;;11.00;99.90;;;;;;4990224;28;20354;-51
2023/04/01 09:42:13;;;;;;;24.40;12.73;;;11.30;99.90;;;;;;4988136;28;20055;-52
2023/04/01 09:45:00;;;;;;;19.15;12.38;;;11.50;99.90;;;;;;4990416;28;20046;-50
2023/04/01 09:47:44;;;;;;;20.88;12.43;;;11.30;99.90;;;;;;4989967;28;20050;-50
2023/04/01 09:50:46;;;;;;;21.88;12.27;;;10.80;99.90;;;;;;4984878;28;20113;-52
2023/04/01 09:53:29;;;;;;;20.02;11.85;;;10.90;99.90;;;;;;4989176;28;20042;-49
2023/04/01 09:56:45;;;;;;;21.77;11.55;;;10.70;99.90;;;;;;4989754;28;20116;-49
2023/04/01 09:59:35;;;;;;;13.05;8.68;;;10.70;99.90;;;;;;4988586;28;20072;-51
2023/04/01 10:02:19;;;;;;;9.60;6.18;;;10.80;99.90;;;;;;4990575;28;20076;-52
2023/04/01 10:05:18;;;;;;;9.10;5.38;;;11.00;99.90;;;;;;4990452;28;20097;-51
2023/04/01 10:08:08;;;;;;;6.45;4.90;;;11.10;99.90;;;;;;4990415;28;20467;-50
2023/04/01 10:10:53;;;;;;;6.38;4.88;;;11.00;99.90;;;;;;4989305;28;20085;-51
2023/04/01 10:13:38;;;;;;;6.82;4.53;;;10.90;99.90;;;;;;4989753;28;20042;-49
2023/04/01 10:16:16;;;;;;;12.98;7.30;;;11.20;99.90;;;;;;4989719;28;20038;-49
2023/04/01 10:19:15;;;;;;;8.70;5.85;;;10.80;99.90;;;;;;4989130;28;20053;-51
2023/04/01 10:22:15;;;;;;;9.40;6.80;;;10.60;99.90;;;;;;4989515;28;20080;-53
2023/04/01 10:25:18;;;;;;;8.27;6.25;;;10.70;99.90;;;;;;4989524;28;20049;-53
2023/04/01 10:28:00;;;;;;;9.00;6.85;;;10.80;99.90;;;;;;4989422;28;20040;-52
2023/04/01 10:30:35;;;;;;;9.80;6.50;;;10.80;99.90;;;;;;4989433;28;20157;-51
2023/04/01 10:33:00;;;;;;;8.80;6.53;;;10.70;99.90;;;;;;4989419;28;20424;-51
2023/04/01 10:35:29;;;;;;;8.40;6.07;;;10.80;99.90;;;;;;4989404;28;20049;-52
2023/04/01 10:38:14;;;;;;;8.10;6.00;;;10.70;99.90;;;;;;4988360;28;20074;-49
2023/04/01 10:41:17;;;;;;;8.02;5.60;;;10.90;99.90;;;;;;4989052;28;20057;-49
2023/04/01 10:44:14;;;;;;;5.95;4.65;;;10.40;99.90;;;;;;4989788;28;20744;-50
2023/04/01 10:46:45;;;;;;;6.70;5.15;;;10.40;99.90;;;;;;4988135;28;20042;-50
2023/04/01 10:50:01;;;;;;;9.18;6.18;;;10.40;99.90;;;;;;4989021;28;20062;-51
2023/04/01 10:52:45;;;;;;;10.07;5.65;;;10.40;99.90;;;;;;4987301;28;20119;-50
2023/04/01 10:55:30;;;;;;;8.27;5.70;;;10.80;99.90;;;;;;4989084;28;20046;-49
2023/04/01 10:58:20;;;;;;;7.88;5.97;;;10.10;99.90;;;;;;4989345;28;20038;-53
2023/04/01 11:01:04;;;;;;;6.60;4.47;;;10.00;99.90;;;;;;4988870;28;20477;-50
2023/04/01 11:04:01;;;;;;;5.70;4.15;;;9.90;99.90;;;;;;4987814;28;20034;-49
2023/04/01 11:06:41;;;;;;;6.03;4.20;;;9.90;99.90;;;;;;4988151;28;20112;-52
2023/04/01 11:09:44;;;;;;;5.82;4.45;;;10.00;99.90;;;;;;4988383;28;20705;-51
2023/04/01 11:12:34;;;;;;;5.25;3.55;;;10.00;99.90;;;;;;4988679;28;20424;-51
2023/04/01 11:15:29;;;;;;;4.78;3.47;;;10.00;99.90;;;;;;4988680;28;20039;-50
2023/04/01 11:18:39;;;;;;;5.40;3.67;;;9.90;99.90;;;;;;4985169;28;20050;-51
2023/04/01 11:21:13;;;;;;;4.80;3.50;;;9.90;99.90;;;;;;4987398;28;20082;-50
2023/04/01 11:23:47;;;;;;;5.68;3.53;;;9.70;99.90;;;;;;4987600;28;20046;-50
2023/04/01 11:26:26;;;;;;;5.80;4.05;;;9.90;99.90;;;;;;4987608;28;20049;-49
2023/04/01 11:29:28;;;;;;;6.50;4.70;;;9.60;99.90;;;;;;4988237;28;20046;-51
2023/04/01 11:32:35;;;;;;;6.18;4.38;;;9.50;99.90;;;;;;4988348;28;20676;-49
2023/04/01 11:35:35;;;;;;;6.05;4.18;;;9.50;99.90;;;;;;4982976;28;20755;-51
2023/04/01 11:38:19;;;;;;;5.72;3.88;;;9.40;99.90;;;;;;4988003;28;20038;-51
2023/04/01 11:41:10;;;;;;;5.45;3.53;;;9.50;99.90;;;;;;4987690;28;20101;-49
2023/04/01 11:44:03;;;;;;;4.90;3.50;;;9.50;99.90;;;;;;4988150;28;20046;-46
2023/04/01 11:46:41;;;;;;;4.82;2.80;;;9.60;99.90;;;;;;4987879;28;20049;-48
2023/04/01 11:49:16;;;;;;;5.10;2.88;;;9.70;99.90;;;;;;4986967;28;20097;-47
2023/04/01 11:52:14;;;;;;;4.40;2.90;;;9.90;99.90;;;;;;4987644;28;20046;-48
2023/04/01 11:55:04;;;;;;;4.88;3.55;;;9.60;99.90;;;;;;4978086;28;20148;-51
2023/04/01 11:58:21;;;;;;;5.38;3.58;;;9.60;99.90;;;;;;4987873;28;20164;-48
2023/04/01 12:00:59;;;;;;;4.53;3.45;;;9.60;99.90;;;;;;4965106;28;20042;-47
2023/04/01 12:04:02;;;;;;;3.92;3.03;;;9.70;99.90;;;;;;4984806;28;20076;-47
2023/04/01 12:06:36;;;;;;;;;;;9.70;99.90;;;;;;4988487;28;20515;-48
2023/04/01 12:09:32;;;;;;;6.68;4.18;;;9.70;99.90;;;;;;4987873;28;19930;-47
2023/04/01 12:12:17;;;;;;;7.15;4.55;;;9.70;99.90;;;;;;4987438;28;20046;-48
2023/04/01 12:15:20;;;;;;;4.70;3.70;;;9.70;99.90;;;;;;4987667;28;20077;-48
2023/04/01 12:17:54;;;;;;;4.28;3.25;;;9.70;99.90;;;;;;4988053;28;20042;-48
2023/04/01 12:20:28;;;;;;;4.32;2.85;;;9.60;99.90;;;;;;4988266;28;20042;-46
2023/04/01 12:23:06;;;;;;;4.45;3.83;;;9.60;99.90;;;;;;4987655;28;20046;-48
2023/04/01 12:25:47;;;;;;;4.00;3.20;;;10.00;99.90;;;;;;4987644;28;20052;-47
2023/04/01 12:28:43;;;;;;;4.70;3.22;;;9.70;99.90;;;;;;4987620;28;20089;-49
2023/04/01 12:31:31;;;;;;;4.65;3.15;;;9.60;99.90;;;;;;4988123;28;20042;-49
2023/04/01 12:34:30;;;;;;;4.68;3.53;;;9.60;99.90;;;;;;4986969;28;20049;-47
2023/04/01 12:37:07;;;;;;;4.93;4.07;;;9.50;99.90;;;;;;4987511;28;20173;-48
2023/04/01 12:40:01;;;;;;;4.75;3.30;;;9.40;99.90;;;;;;4987389;28;20130;-48
2023/04/01 12:42:56;;;;;;;4.32;3.47;;;9.40;99.90;;;;;;4987169;28;20520;-47
2023/04/01 12:45:38;;;;;;;4.25;3.17;;;9.40;99.90;;;;;;4986398;28;20572;-49
2023/04/01 12:48:13;;;;;;;4.25;2.92;;;9.30;99.90;;;;;;4986349;28;20042;-49
2023/04/01 12:51:10;;;;;;;3.72;2.72;;;9.30;99.90;;;;;;4986990;28;20559;-48
2023/04/01 12:54:13;;;;;;;3.67;3.08;;;9.20;99.90;;;;;;4987692;28;20081;-48
2023/04/01 12:57:13;;;;;;;5.03;3.72;;;9.20;99.90;;;;;;4987456;28;20049;-48
2023/04/01 12:59:57;;;;;;;4.53;3.15;;;9.10;99.90;;;;;;4986847;28;20120;-48
2023/04/01 13:02:46;;;;;;;4.65;3.42;;;9.60;99.90;;;;;;4986054;28;20415;-50
2023/04/01 13:05:30;;;;;;;3.97;3.35;;;9.20;99.90;;;;;;4985772;28;20045;-48
2023/04/01 13:08:22;;;;;;;3.67;3.15;;;9.20;99.90;;;;;;4985737;28;20038;-49
2023/04/01 13:11:05;;;;;;;3.30;2.92;;;9.20;99.90;;;;;;4986620;28;20128;-50
2023/04/01 13:14:02;;;;;;;3.92;2.78;;;9.10;99.90;;;;;;4987149;28;20092;-48
2023/04/01 13:16:31;;;;;;;3.53;2.78;;;9.10;99.90;;;;;;4986533;28;20114;-50
2023/04/01 13:19:05;;;;;;;4.22;3.22;;;9.40;99.90;;;;;;4986364;28;20484;-47
2023/04/01 13:22:04;;;;;;;4.90;3.03;;;9.20;99.90;;;;;;4986468;28;20057;-51
2023/04/01 13:24:50;;;;;;;3.42;2.50;;;8.80;99.90;;;;;;4986012;28;20396;-48
2023/04/01 13:27:36;;;;;;;3.67;2.83;;;8.70;99.90;;;;;;4966914;28;20086;-50
2023/04/01 13:30:23;;;;;;;4.75;2.38;;;8.60;99.90;;;;;;4981287;28;20404;-52
2023/04/01 13:33:14;;;;;;;3.55;2.53;;;9.90;99.90;;;;;;4985329;28;20529;-53
2023/04/01 13:36:06;;;;;;;3.42;2.20;;;8.60;99.90;;;;;;4987781;28;20049;-53